createdAt,value
2022-11-30T00:03:23.971Z,7.20
2022-11-30T00:07:26.032Z,7.20
2022-11-30T00:11:29.605Z,7.10
2022-11-30T00:15:31.364Z,7.20
2022-11-30T00:19:33.021Z,7.20
2022-11-30T00:23:40.402Z,7.10
2022-11-30T00:27:42.320Z,7.10
2022-11-30T00:31:43.967Z,7.10
2022-11-30T00:35:59.369Z,7.10
2022-11-30T00:40:01.014Z,7.10
2022-11-30T00:44:02.716Z,7.20
2022-11-30T00:48:04.507Z,7.10
2022-11-30T00:52:06.409Z,7.10
2022-11-30T00:56:09.110Z,7.10
2022-11-30T01:00:11.138Z,7.10
2022-11-30T01:04:12.773Z,7.10
2022-11-30T01:08:14.435Z,7.10
2022-11-30T01:12:16.072Z,7.10
2022-11-30T01:16:20.902Z,7.10
2022-11-30T01:20:22.554Z,7.00
2022-11-30T01:24:24.276Z,7.10
2022-11-30T01:28:25.892Z,7.10
2022-11-30T01:32:27.731Z,7.10
2022-11-30T01:36:29.379Z,7.10
2022-11-30T01:40:31.020Z,7.10
2022-11-30T01:44:32.621Z,7.00
2022-11-30T01:48:34.302Z,7.00
2022-11-30T01:52:40.202Z,7.00
2022-11-30T01:56:47.713Z,7.10
2022-11-30T02:00:49.592Z,7.00
2022-11-30T02:04:51.360Z,7.00
2022-11-30T02:08:54.028Z,7.00
2022-11-30T02:13:13.683Z,7.10
2022-11-30T02:17:58.604Z,7.10
2022-11-30T02:22:04.639Z,7.10
2022-11-30T02:26:36.390Z,7.00
2022-11-30T02:30:43.713Z,7.10
2022-11-30T02:34:48.224Z,7.10
2022-11-30T02:38:50.610Z,7.10
2022-11-30T02:42:54.058Z,7.10
2022-11-30T02:47:20.401Z,7.10
2022-11-30T02:51:26.475Z,7.10
2022-11-30T02:55:29.074Z,7.10
2022-11-30T02:59:30.810Z,7.10
2022-11-30T03:03:32.502Z,7.00
2022-11-30T03:07:34.182Z,7.10
2022-11-30T03:11:36.895Z,7.10
2022-11-30T03:15:38.590Z,7.10
2022-11-30T03:19:40.247Z,7.10
2022-11-30T03:23:41.910Z,7.00
2022-11-30T03:27:43.777Z,7.10
2022-11-30T03:31:45.477Z,7.00
2022-11-30T03:35:47.743Z,7.10
2022-11-30T03:39:52.479Z,7.00
2022-11-30T03:43:58.291Z,7.00
2022-11-30T03:47:59.897Z,6.90
2022-11-30T03:52:01.612Z,6.80
2022-11-30T03:56:06.119Z,6.70
2022-11-30T04:00:08.385Z,6.70
2022-11-30T04:04:11.638Z,6.70
2022-11-30T04:08:13.427Z,6.60
2022-11-30T04:12:15.382Z,6.60
2022-11-30T04:16:17.108Z,6.60
2022-11-30T04:20:18.916Z,6.60
2022-11-30T04:24:20.568Z,6.60
2022-11-30T04:28:22.464Z,6.50
2022-11-30T04:32:24.117Z,6.60
2022-11-30T04:36:25.771Z,6.60
2022-11-30T04:40:27.409Z,6.60
2022-11-30T04:44:29.051Z,6.50
2022-11-30T04:48:30.728Z,6.50
2022-11-30T04:52:32.723Z,6.50
2022-11-30T04:56:34.537Z,6.60
2022-11-30T05:00:36.798Z,6.50
2022-11-30T05:04:38.470Z,6.50
2022-11-30T05:08:40.127Z,6.50
2022-11-30T05:12:41.764Z,6.50
2022-11-30T05:16:43.413Z,6.40
2022-11-30T05:20:49.854Z,6.40
2022-11-30T05:24:51.463Z,6.40
2022-11-30T05:28:53.216Z,6.30
2022-11-30T05:32:54.842Z,6.30
2022-11-30T05:36:56.466Z,6.30
2022-11-30T05:41:01.973Z,6.40
2022-11-30T05:45:04.020Z,6.30
2022-11-30T05:49:05.776Z,6.20
2022-11-30T05:53:07.367Z,6.10
2022-11-30T05:57:09.003Z,6.00
2022-11-30T06:01:27.743Z,6.00
2022-11-30T06:05:29.349Z,6.00
2022-11-30T06:09:30.940Z,5.90
2022-11-30T06:13:32.672Z,5.90
2022-11-30T06:17:35.191Z,5.90
2022-11-30T06:21:36.858Z,5.90
2022-11-30T06:25:38.470Z,5.90
2022-11-30T06:29:40.148Z,5.90
2022-11-30T06:33:41.847Z,5.90
2022-11-30T06:37:43.575Z,5.90
2022-11-30T06:41:47.903Z,5.90
2022-11-30T06:45:51.788Z,5.90
2022-11-30T06:49:53.814Z,5.90
2022-11-30T06:53:55.456Z,5.80
2022-11-30T06:58:08.130Z,5.80
2022-11-30T07:02:17.231Z,5.90
2022-11-30T07:06:19.849Z,5.90
2022-11-30T07:10:22.800Z,6.00
2022-11-30T07:14:25.417Z,6.00
2022-11-30T07:18:31.661Z,6.00
2022-11-30T07:22:33.851Z,6.10
2022-11-30T07:26:35.617Z,6.10
2022-11-30T07:30:37.207Z,6.10
2022-11-30T07:34:38.947Z,6.10
2022-11-30T07:38:40.906Z,6.10
2022-11-30T07:42:42.548Z,6.20
2022-11-30T07:46:44.234Z,6.20
2022-11-30T07:50:46.804Z,6.20
2022-11-30T07:54:48.902Z,6.20
2022-11-30T07:58:53.259Z,6.30
2022-11-30T08:02:54.874Z,6.30
2022-11-30T08:06:56.607Z,6.30
2022-11-30T08:10:59.165Z,6.30
2022-11-30T08:19:22.381Z,6.30
2022-11-30T08:23:24.089Z,6.40
2022-11-30T08:27:26.286Z,6.30
2022-11-30T08:31:37.820Z,6.40
2022-11-30T08:35:39.470Z,6.40
2022-11-30T08:39:41.115Z,6.40
2022-11-30T08:43:43.007Z,6.40
2022-11-30T08:47:44.701Z,6.50
2022-11-30T08:56:13.563Z,6.60
2022-11-30T09:00:15.971Z,6.50
2022-11-30T09:04:18.033Z,6.50
2022-11-30T09:08:19.678Z,6.50
2022-11-30T09:12:21.312Z,6.50
2022-11-30T09:16:23.995Z,6.50
2022-11-30T09:20:25.623Z,6.60
2022-11-30T09:24:27.304Z,6.60
2022-11-30T09:28:32.317Z,6.60
2022-11-30T09:32:34.024Z,6.70
2022-11-30T09:36:36.513Z,6.60
2022-11-30T09:40:41.412Z,6.50
2022-11-30T09:45:01.954Z,6.60
2022-11-30T09:49:13.294Z,6.50
2022-11-30T09:53:39.923Z,6.60
2022-11-30T09:58:00.429Z,6.60
2022-11-30T10:02:15.409Z,6.60
2022-11-30T10:06:29.096Z,6.60
2022-11-30T10:10:41.434Z,6.60
2022-11-30T10:14:58.703Z,6.70
2022-11-30T10:19:18.907Z,6.70
2022-11-30T10:23:28.838Z,6.70
2022-11-30T10:27:54.982Z,6.70
2022-11-30T10:31:59.360Z,6.70
2022-11-30T10:36:13.385Z,6.60
2022-11-30T10:40:44.185Z,6.60
2022-11-30T10:44:57.321Z,6.60
2022-11-30T10:49:05.455Z,6.60
2022-11-30T10:53:10.148Z,6.60
2022-11-30T10:57:14.414Z,6.60
2022-11-30T11:01:35.828Z,6.60
2022-11-30T11:05:37.721Z,6.60
2022-11-30T11:10:01.286Z,6.60
2022-11-30T11:14:14.420Z,6.60
2022-11-30T11:18:16.024Z,6.60
2022-11-30T11:22:20.622Z,6.70
2022-11-30T11:26:27.691Z,6.60
2022-11-30T11:30:31.085Z,6.70
2022-11-30T11:34:35.289Z,6.60
2022-11-30T11:38:46.385Z,6.70
2022-11-30T11:42:58.120Z,6.70
2022-11-30T11:47:02.506Z,6.70
2022-11-30T11:51:08.464Z,6.70
2022-11-30T11:55:19.556Z,6.80
2022-11-30T11:59:47.292Z,6.80
2022-11-30T12:04:02.964Z,6.80
2022-11-30T12:08:19.282Z,6.90
2022-11-30T12:12:20.925Z,6.80
2022-11-30T12:16:31.459Z,6.90
2022-11-30T12:20:43.640Z,7.00
2022-11-30T12:25:06.116Z,7.00
2022-11-30T12:29:17.443Z,7.10
2022-11-30T12:33:28.330Z,7.00
2022-11-30T12:38:02.790Z,6.90
2022-11-30T12:42:15.031Z,6.90
2022-11-30T12:46:27.414Z,6.90
2022-11-30T12:50:47.360Z,6.90
2022-11-30T12:55:19.332Z,6.90
2022-11-30T12:59:51.775Z,6.90
2022-11-30T13:04:18.054Z,6.90
2022-11-30T13:09:13.795Z,6.90
2022-11-30T13:13:19.838Z,6.80
2022-11-30T13:17:22.981Z,6.80
2022-11-30T13:21:41.996Z,6.70
2022-11-30T13:26:09.252Z,6.70
2022-11-30T13:30:40.963Z,6.70
2022-11-30T13:34:42.774Z,6.70
2022-11-30T13:38:44.443Z,6.60
2022-11-30T13:42:51.659Z,6.70
2022-11-30T13:46:53.760Z,6.70
2022-11-30T13:50:55.497Z,6.70
2022-11-30T13:54:58.188Z,6.80
2022-11-30T13:59:31.865Z,6.80
2022-11-30T14:03:33.667Z,6.80
2022-11-30T14:07:37.683Z,6.80
2022-11-30T14:11:41.452Z,6.70
2022-11-30T14:15:43.056Z,6.70
2022-11-30T14:19:51.657Z,6.70
2022-11-30T14:23:58.555Z,6.70
2022-11-30T14:28:02.827Z,6.70
2022-11-30T14:32:29.654Z,6.70
2022-11-30T14:36:38.860Z,6.70
2022-11-30T14:40:50.419Z,6.70
2022-11-30T14:44:53.204Z,6.80
2022-11-30T14:49:12.508Z,6.70
2022-11-30T14:53:58.267Z,6.70
2022-11-30T14:58:25.379Z,6.80
2022-11-30T15:02:37.248Z,6.70
2022-11-30T15:06:40.455Z,6.60
2022-11-30T15:10:42.939Z,6.60
2022-11-30T15:15:04.136Z,6.60
2022-11-30T15:19:25.871Z,6.50
2022-11-30T15:23:27.896Z,6.50
2022-11-30T15:27:29.680Z,6.50
2022-11-30T15:31:38.228Z,6.40
2022-11-30T15:36:13.741Z,6.50
2022-11-30T15:40:10.671Z,6.50
2022-11-30T15:44:24.759Z,6.40
2022-11-30T15:48:29.252Z,6.50
2022-11-30T15:52:33.369Z,6.50
2022-11-30T15:56:36.178Z,6.40
2022-11-30T16:00:37.893Z,6.40
2022-11-30T16:04:57.689Z,6.40
2022-11-30T16:09:17.540Z,6.40
2022-11-30T16:13:21.527Z,6.40
2022-11-30T16:17:23.550Z,6.50
2022-11-30T16:21:25.281Z,6.50
2022-11-30T16:25:26.994Z,6.40
2022-11-30T16:29:28.666Z,6.40
2022-11-30T16:33:30.419Z,6.40
2022-11-30T16:37:32.056Z,6.40
2022-11-30T16:41:35.558Z,6.40
2022-11-30T16:45:38.090Z,6.40
2022-11-30T16:49:39.811Z,6.40
2022-11-30T16:53:41.402Z,6.40
2022-11-30T16:57:43.360Z,6.40
2022-11-30T17:01:47.593Z,6.40
2022-11-30T17:05:49.373Z,6.40
2022-11-30T17:09:51.026Z,6.50
2022-11-30T17:13:52.700Z,6.50
2022-11-30T17:17:58.197Z,6.40
2022-11-30T17:21:59.884Z,6.40
2022-11-30T17:26:01.577Z,6.50
2022-11-30T17:30:03.576Z,6.40
2022-11-30T17:34:06.455Z,6.40
2022-11-30T17:38:08.166Z,6.40
2022-11-30T17:42:09.844Z,6.40
2022-11-30T17:46:17.926Z,6.40
2022-11-30T17:50:20.004Z,6.30
2022-11-30T17:54:21.653Z,6.30
2022-11-30T17:58:23.280Z,6.20
2022-11-30T18:02:25.256Z,6.20
2022-11-30T18:06:27.359Z,6.30
2022-11-30T18:10:29.034Z,6.30
2022-11-30T18:14:30.659Z,6.30
2022-11-30T18:18:32.348Z,6.30
2022-11-30T18:22:34.058Z,6.30
2022-11-30T18:26:35.757Z,6.30
2022-11-30T18:30:37.822Z,6.40
2022-11-30T18:34:40.057Z,6.30
2022-11-30T18:38:41.771Z,6.40
2022-11-30T18:42:43.444Z,6.30
2022-11-30T18:46:45.182Z,6.30
2022-11-30T18:50:47.265Z,6.30
2022-11-30T18:54:49.192Z,6.30
2022-11-30T18:58:56.217Z,6.20
2022-11-30T19:02:57.858Z,6.20
2022-11-30T19:06:59.576Z,6.20
2022-11-30T19:11:05.318Z,6.20
2022-11-30T19:15:07.580Z,6.30
2022-11-30T19:19:12.584Z,6.20
2022-11-30T19:23:14.178Z,6.30
2022-11-30T19:27:15.812Z,6.20
2022-11-30T19:31:19.824Z,6.20
2022-11-30T19:35:22.954Z,6.20
2022-11-30T19:39:24.645Z,6.20
2022-11-30T19:43:26.251Z,6.20
2022-11-30T19:47:27.951Z,6.20
2022-11-30T19:51:30.942Z,6.20
2022-11-30T19:55:33.136Z,6.10
2022-11-30T19:59:34.753Z,6.20
2022-11-30T20:03:36.402Z,6.20
2022-11-30T20:07:38.096Z,6.20
2022-11-30T20:11:40.158Z,6.10
2022-11-30T20:15:41.878Z,6.10
2022-11-30T20:19:43.584Z,6.10
2022-11-30T20:23:47.327Z,6.10
2022-11-30T20:27:49.787Z,6.00
2022-11-30T20:31:51.448Z,6.10
2022-11-30T20:35:53.057Z,6.00
2022-11-30T20:39:54.677Z,6.00
2022-11-30T20:43:56.381Z,6.00
2022-11-30T20:47:57.976Z,6.00
2022-11-30T20:51:59.722Z,5.90
2022-11-30T20:56:01.378Z,5.90
2022-11-30T21:00:07.640Z,5.90
2022-11-30T21:04:13.519Z,6.00
2022-11-30T21:08:15.183Z,5.90
2022-11-30T21:12:17.077Z,5.90
2022-11-30T21:16:27.185Z,5.90
2022-11-30T21:20:30.125Z,5.90
2022-11-30T21:24:32.040Z,5.90
2022-11-30T21:28:37.999Z,5.90
2022-11-30T21:32:39.999Z,5.90
2022-11-30T21:36:42.260Z,5.90
2022-11-30T21:40:53.962Z,6.00
2022-11-30T21:44:55.603Z,5.90
2022-11-30T21:48:57.266Z,5.90
2022-11-30T21:52:58.923Z,5.90
2022-11-30T21:57:00.571Z,5.90
2022-11-30T22:01:02.894Z,5.90
2022-11-30T22:05:04.920Z,5.90
2022-11-30T22:09:10.984Z,5.90
2022-11-30T22:13:12.621Z,5.90
2022-11-30T22:17:14.274Z,5.90
2022-11-30T22:21:24.633Z,5.90
2022-11-30T22:25:26.425Z,6.00
2022-11-30T22:29:29.221Z,5.90
2022-11-30T22:33:34.978Z,5.90
2022-11-30T22:37:36.846Z,5.90
2022-11-30T22:41:40.276Z,6.00
2022-11-30T22:45:41.875Z,6.00
2022-11-30T22:49:43.556Z,6.00
2022-11-30T22:53:47.471Z,5.90
2022-11-30T22:57:49.119Z,5.90
2022-11-30T23:01:51.388Z,5.90
2022-11-30T23:05:54.466Z,5.90
2022-11-30T23:09:57.303Z,5.80
2022-11-30T23:13:59.009Z,5.80
2022-11-30T23:18:00.617Z,5.80
2022-11-30T23:22:02.227Z,5.80
2022-11-30T23:26:15.847Z,5.80
2022-11-30T23:30:17.500Z,5.80
2022-11-30T23:34:21.590Z,5.80
2022-11-30T23:38:23.264Z,5.80
2022-11-30T23:42:24.906Z,5.80
2022-11-30T23:46:26.637Z,5.80
2022-11-30T23:50:28.321Z,5.80
2022-11-30T23:54:29.979Z,5.70
2022-11-30T23:58:32.703Z,5.80
